sensor_id;sensor_type;location;lat;lon;timestamp;pressure;altitude;pressure_sealevel;temperature;humidity
32642;BME280;19323;56.072;9.698;2022-08-03T00:01:33;100574.59;;;27.83;40.78
32642;BME280;19323;56.072;9.698;2022-08-03T00:04:00;100575.44;;;27.83;40.31
32642;BME280;19323;56.072;9.698;2022-08-03T00:06:27;100570.91;;;27.84;40.55
32642;BME280;19323;56.072;9.698;2022-08-03T00:08:53;100574.44;;;27.84;40.54
32642;BME280;19323;56.072;9.698;2022-08-03T00:11:20;100574.59;;;27.83;40.50
32642;BME280;19323;56.072;9.698;2022-08-03T00:13:46;100563.84;;;27.83;40.77
32642;BME280;19323;56.072;9.698;2022-08-03T00:16:13;100565.53;;;27.84;40.35
32642;BME280;19323;56.072;9.698;2022-08-03T00:18:39;100551.84;;;27.70;40.37
32642;BME280;19323;56.072;9.698;2022-08-03T00:21:06;100558.84;;;27.80;40.54
32642;BME280;19323;56.072;9.698;2022-08-03T00:23:33;100561.97;;;27.83;40.38
32642;BME280;19323;56.072;9.698;2022-08-03T00:26:19;100566.38;;;27.84;40.66
32642;BME280;19323;56.072;9.698;2022-08-03T00:28:46;100567.22;;;27.85;40.41
32642;BME280;19323;56.072;9.698;2022-08-03T00:31:12;100566.38;;;27.84;40.50
32642;BME280;19323;56.072;9.698;2022-08-03T00:33:39;100564.00;;;27.81;40.56
32642;BME280;19323;56.072;9.698;2022-08-03T00:36:26;100570.91;;;27.84;40.46
32642;BME280;19323;56.072;9.698;2022-08-03T00:38:54;100569.91;;;27.85;40.39
32642;BME280;19323;56.072;9.698;2022-08-03T00:41:20;100568.06;;;27.85;40.88
32642;BME280;19323;56.072;9.698;2022-08-03T00:43:47;100554.44;;;27.79;40.69
32642;BME280;19323;56.072;9.698;2022-08-03T00:46:13;100559.16;;;27.85;40.73
32642;BME280;19323;56.072;9.698;2022-08-03T00:48:50;100548.41;;;27.77;40.81
32642;BME280;19323;56.072;9.698;2022-08-03T00:51:17;100554.28;;;27.80;40.61
32642;BME280;19323;56.072;9.698;2022-08-03T00:53:45;100542.56;;;27.73;40.74
32642;BME280;19323;56.072;9.698;2022-08-03T00:56:13;100552.78;;;27.78;40.34
32642;BME280;19323;56.072;9.698;2022-08-03T00:58:40;100562.50;;;27.87;40.48
32642;BME280;19323;56.072;9.698;2022-08-03T01:01:09;100552.56;;;27.87;40.83
32642;BME280;19323;56.072;9.698;2022-08-03T01:03:35;100558.16;;;27.86;40.86
32642;BME280;19323;56.072;9.698;2022-08-03T01:14:32;100568.91;;;27.86;40.76
32642;BME280;19323;56.072;9.698;2022-08-03T01:17:37;100557.94;;;27.87;40.96
32642;BME280;19323;56.072;9.698;2022-08-03T01:20:09;100541.19;;;27.77;40.63
32642;BME280;19323;56.072;9.698;2022-08-03T01:22:47;100559.81;;;27.87;40.93
32642;BME280;19323;56.072;9.698;2022-08-03T01:25:27;100545.53;;;27.86;40.38
32642;BME280;19323;56.072;9.698;2022-08-03T01:31:10;100539.78;;;27.81;40.94
32642;BME280;19323;56.072;9.698;2022-08-03T01:33:45;100523.84;;;27.80;40.87
32642;BME280;19323;56.072;9.698;2022-08-03T01:36:21;100431.91;;;27.22;40.73
32642;BME280;19323;56.072;9.698;2022-08-03T01:38:53;100532.91;;;27.87;40.69
32642;BME280;19323;56.072;9.698;2022-08-03T01:41:28;100535.59;;;27.87;40.76
32642;BME280;19323;56.072;9.698;2022-08-03T01:43:57;100532.06;;;27.86;41.07
32642;BME280;19323;56.072;9.698;2022-08-03T01:46:46;100522.97;;;27.87;41.05
32642;BME280;19323;56.072;9.698;2022-08-03T01:49:15;100524.81;;;27.87;41.08
32642;BME280;19323;56.072;9.698;2022-08-03T01:51:45;100532.91;;;27.87;41.24
32642;BME280;19323;56.072;9.698;2022-08-03T01:54:31;100518.47;;;27.80;41.12
32642;BME280;19323;56.072;9.698;2022-08-03T01:57:01;100529.22;;;27.88;41.37
32642;BME280;19323;56.072;9.698;2022-08-03T01:59:29;100534.59;;;27.88;41.18
32642;BME280;19323;56.072;9.698;2022-08-03T02:01:58;100525.16;;;27.84;40.85
32642;BME280;19323;56.072;9.698;2022-08-03T02:04:46;100528.34;;;27.87;41.12
32642;BME280;19323;56.072;9.698;2022-08-03T02:07:14;100534.59;;;27.88;41.04
32642;BME280;19323;56.072;9.698;2022-08-03T02:09:44;100530.88;;;27.89;41.22
32642;BME280;19323;56.072;9.698;2022-08-03T02:12:13;100517.91;;;27.84;41.65
32642;BME280;19323;56.072;9.698;2022-08-03T02:14:42;100531.91;;;27.88;41.56
32642;BME280;19323;56.072;9.698;2022-08-03T02:17:10;100536.25;;;27.89;41.14
32642;BME280;19323;56.072;9.698;2022-08-03T02:19:38;100532.91;;;27.87;41.44
32642;BME280;19323;56.072;9.698;2022-08-03T02:22:09;100528.19;;;27.89;41.39
32642;BME280;19323;56.072;9.698;2022-08-03T02:24:36;100521.97;;;27.88;41.16
32642;BME280;19323;56.072;9.698;2022-08-03T02:27:06;100530.03;;;27.88;41.74
32642;BME280;19323;56.072;9.698;2022-08-03T02:29:38;100530.88;;;27.89;41.71
32642;BME280;19323;56.072;9.698;2022-08-03T02:32:13;100520.09;;;27.89;41.41
32642;BME280;19323;56.072;9.698;2022-08-03T02:34:46;100521.81;;;27.82;41.39
32642;BME280;19323;56.072;9.698;2022-08-03T02:37:17;100522.78;;;27.89;41.39
32642;BME280;19323;56.072;9.698;2022-08-03T02:39:45;100506.22;;;27.77;41.86
32642;BME280;19323;56.072;9.698;2022-08-03T02:42:14;100513.88;;;27.88;41.83
32642;BME280;19323;56.072;9.698;2022-08-03T02:44:47;100501.28;;;27.81;41.81
32642;BME280;19323;56.072;9.698;2022-08-03T02:47:15;100512.84;;;27.89;41.29
32642;BME280;19323;56.072;9.698;2022-08-03T02:49:48;100513.69;;;27.90;41.53
32642;BME280;19323;56.072;9.698;2022-08-03T02:52:22;100491.06;;;27.76;41.81
32642;BME280;19323;56.072;9.698;2022-08-03T02:54:52;100508.31;;;27.90;41.96
32642;BME280;19323;56.072;9.698;2022-08-03T02:57:20;100506.66;;;27.89;41.93
32642;BME280;19323;56.072;9.698;2022-08-03T02:59:48;100501.25;;;27.89;41.68
32642;BME280;19323;56.072;9.698;2022-08-03T03:02:16;100505.63;;;27.90;42.12
32642;BME280;19323;56.072;9.698;2022-08-03T03:04:44;100461.59;;;27.60;41.73
32642;BME280;19323;56.072;9.698;2022-08-03T03:07:32;100484.31;;;27.80;41.84
32642;BME280;19323;56.072;9.698;2022-08-03T03:10:20;100494.69;;;27.91;41.48
32642;BME280;19323;56.072;9.698;2022-08-03T03:12:49;100497.38;;;27.91;41.49
32642;BME280;19323;56.072;9.698;2022-08-03T03:15:17;100501.91;;;27.91;41.80
32642;BME280;19323;56.072;9.698;2022-08-03T03:17:44;100491.97;;;27.91;41.50
32642;BME280;19323;56.072;9.698;2022-08-03T03:20:11;100502.75;;;27.91;41.72
32642;BME280;19323;56.072;9.698;2022-08-03T03:22:40;100470.03;;;27.80;42.03
32642;BME280;19323;56.072;9.698;2022-08-03T03:25:10;100483.44;;;27.88;41.39
32642;BME280;19323;56.072;9.698;2022-08-03T03:27:38;100485.59;;;27.92;41.45
32642;BME280;19323;56.072;9.698;2022-08-03T03:30:05;100495.34;;;27.93;41.65
32642;BME280;19323;56.072;9.698;2022-08-03T03:32:32;100485.63;;;27.84;41.77
32642;BME280;19323;56.072;9.698;2022-08-03T03:34:59;100499.88;;;27.93;41.95
32642;BME280;19323;56.072;9.698;2022-08-03T03:37:26;100505.09;;;27.94;41.89
32642;BME280;19323;56.072;9.698;2022-08-03T03:39:53;100493.47;;;27.94;41.84
32642;BME280;19323;56.072;9.698;2022-08-03T03:42:20;100483.44;;;27.88;41.68
32642;BME280;19323;56.072;9.698;2022-08-03T03:44:47;100502.41;;;27.94;41.71
32642;BME280;19323;56.072;9.698;2022-08-03T03:47:13;100482.53;;;27.96;41.54
32642;BME280;19323;56.072;9.698;2022-08-03T03:49:42;100481.69;;;27.95;41.83
32642;BME280;19323;56.072;9.698;2022-08-03T03:52:09;100479.19;;;27.93;41.56
32642;BME280;19323;56.072;9.698;2022-08-03T03:54:43;100475.28;;;27.96;41.34
32642;BME280;19323;56.072;9.698;2022-08-03T03:57:10;100473.41;;;27.97;41.88
32642;BME280;19323;56.072;9.698;2022-08-03T03:59:42;100474.28;;;27.97;41.84
32642;BME280;19323;56.072;9.698;2022-08-03T04:02:09;100470.72;;;27.97;41.66
32642;BME280;19323;56.072;9.698;2022-08-03T04:04:37;100449.63;;;27.85;41.72
32642;BME280;19323;56.072;9.698;2022-08-03T04:07:23;100472.41;;;27.98;42.19
32642;BME280;19323;56.072;9.698;2022-08-03T04:10:15;100464.22;;;27.91;42.09
32642;BME280;19323;56.072;9.698;2022-08-03T04:13:06;100456.34;;;27.89;41.89
32642;BME280;19323;56.072;9.698;2022-08-03T04:15:37;100454.28;;;27.91;42.15
32642;BME280;19323;56.072;9.698;2022-08-03T04:18:07;100472.25;;;27.99;42.24
32642;BME280;19323;56.072;9.698;2022-08-03T04:20:37;100466.88;;;27.99;42.09
32642;BME280;19323;56.072;9.698;2022-08-03T04:23:05;100462.84;;;27.95;42.01
32642;BME280;19323;56.072;9.698;2022-08-03T04:25:42;100462.19;;;27.93;41.80
32642;BME280;19323;56.072;9.698;2022-08-03T04:28:09;100470.38;;;28.00;42.00
32642;BME280;19323;56.072;9.698;2022-08-03T04:30:58;100463.13;;;28.00;42.01
32642;BME280;19323;56.072;9.698;2022-08-03T04:33:25;100434.00;;;27.81;42.23
32642;BME280;19323;56.072;9.698;2022-08-03T04:35:57;100459.44;;;28.01;42.18
32642;BME280;19323;56.072;9.698;2022-08-03T04:38:29;100464.81;;;28.01;42.08
32642;BME280;19323;56.072;9.698;2022-08-03T04:40:58;100448.09;;;27.91;41.79
32642;BME280;19323;56.072;9.698;2022-08-03T04:43:25;100457.81;;;27.92;41.58
32642;BME280;19323;56.072;9.698;2022-08-03T04:45:53;100465.66;;;28.02;41.75
32642;BME280;19323;56.072;9.698;2022-08-03T04:48:20;100454.13;;;27.93;41.89
32642;BME280;19323;56.072;9.698;2022-08-03T04:50:47;100447.44;;;27.89;41.62
32642;BME280;19323;56.072;9.698;2022-08-03T04:53:15;100471.88;;;28.02;41.51
32642;BME280;19323;56.072;9.698;2022-08-03T04:55:42;100463.78;;;28.02;41.77
32642;BME280;19323;56.072;9.698;2022-08-03T04:58:08;100466.66;;;28.01;41.64
32642;BME280;19323;56.072;9.698;2022-08-03T05:00:35;100471.88;;;28.02;41.90
32642;BME280;19323;56.072;9.698;2022-08-03T05:03:02;100453.97;;;27.94;41.54
32642;BME280;19323;56.072;9.698;2022-08-03T05:05:44;100468.19;;;28.03;41.98
32642;BME280;19323;56.072;9.698;2022-08-03T05:08:15;100429.16;;;27.76;41.58
32642;BME280;19323;56.072;9.698;2022-08-03T05:10:46;100474.38;;;28.04;41.59
32642;BME280;19323;56.072;9.698;2022-08-03T05:13:13;100460.50;;;27.92;41.93
32642;BME280;19323;56.072;9.698;2022-08-03T05:15:39;100481.44;;;28.05;41.55
32642;BME280;19323;56.072;9.698;2022-08-03T05:18:08;100460.50;;;27.92;41.74
32642;BME280;19323;56.072;9.698;2022-08-03T05:20:39;100482.25;;;28.05;41.72
32642;BME280;19323;56.072;9.698;2022-08-03T05:23:05;100475.59;;;28.01;41.59
32642;BME280;19323;56.072;9.698;2022-08-03T05:25:32;100477.44;;;28.01;42.14
32642;BME280;19323;56.072;9.698;2022-08-03T05:27:58;100472.03;;;28.01;42.00
32642;BME280;19323;56.072;9.698;2022-08-03T05:30:25;100469.66;;;28.06;41.96
32642;BME280;19323;56.072;9.698;2022-08-03T05:32:59;100474.84;;;28.07;42.32
32642;BME280;19323;56.072;9.698;2022-08-03T05:35:26;100474.94;;;27.99;41.98
32642;BME280;19323;56.072;9.698;2022-08-03T05:38:14;100478.56;;;28.06;41.50
32642;BME280;19323;56.072;9.698;2022-08-03T05:40:49;100484.94;;;28.05;41.52
32642;BME280;19323;56.072;9.698;2022-08-03T05:43:23;100482.25;;;28.05;42.14
32642;BME280;19323;56.072;9.698;2022-08-03T05:45:49;100484.94;;;28.05;41.86
32642;BME280;19323;56.072;9.698;2022-08-03T05:48:36;100486.81;;;28.05;41.56
32642;BME280;19323;56.072;9.698;2022-08-03T05:51:03;100489.34;;;28.06;41.34
32642;BME280;19323;56.072;9.698;2022-08-03T05:53:32;100485.81;;;28.06;41.78
32642;BME280;19323;56.072;9.698;2022-08-03T05:55:59;100474.19;;;28.05;41.49
32642;BME280;19323;56.072;9.698;2022-08-03T05:58:42;100481.25;;;28.06;41.56
32642;BME280;19323;56.072;9.698;2022-08-03T06:01:08;100474.84;;;28.07;41.22
32642;BME280;19323;56.072;9.698;2022-08-03T06:03:35;100474.84;;;28.07;41.59
32642;BME280;19323;56.072;9.698;2022-08-03T06:06:01;100472.16;;;28.07;41.31
32642;BME280;19323;56.072;9.698;2022-08-03T06:08:28;100466.75;;;28.07;41.56
32642;BME280;19323;56.072;9.698;2022-08-03T06:10:54;100471.16;;;28.08;41.63
32642;BME280;19323;56.072;9.698;2022-08-03T06:13:21;100465.75;;;28.08;41.43
32642;BME280;19323;56.072;9.698;2022-08-03T06:15:47;100473.00;;;28.08;41.43
32642;BME280;19323;56.072;9.698;2022-08-03T06:18:14;100471.97;;;28.09;41.42
32642;BME280;19323;56.072;9.698;2022-08-03T06:20:40;100469.28;;;28.09;41.16
32642;BME280;19323;56.072;9.698;2022-08-03T06:23:06;100457.75;;;28.00;41.00
32642;BME280;19323;56.072;9.698;2022-08-03T06:25:41;100467.25;;;28.11;41.30
32642;BME280;19323;56.072;9.698;2022-08-03T06:28:08;100436.59;;;27.97;41.28
32642;BME280;19323;56.072;9.698;2022-08-03T06:30:49;100457.50;;;28.10;41.07
32642;BME280;19323;56.072;9.698;2022-08-03T06:33:16;100461.03;;;28.10;40.88
32642;BME280;19323;56.072;9.698;2022-08-03T06:35:42;100441.53;;;28.08;41.47
32642;BME280;19323;56.072;9.698;2022-08-03T06:38:10;100437.25;;;27.99;41.40
32642;BME280;19323;56.072;9.698;2022-08-03T06:40:38;100463.34;;;28.13;41.51
32642;BME280;19323;56.072;9.698;2022-08-03T06:43:07;100460.66;;;28.13;41.66
32642;BME280;19323;56.072;9.698;2022-08-03T06:45:37;100458.78;;;28.14;41.33
32642;BME280;19323;56.072;9.698;2022-08-03T06:48:06;100441.06;;;28.05;42.23
32642;BME280;19323;56.072;9.698;2022-08-03T06:50:35;100466.88;;;28.14;42.00
32642;BME280;19323;56.072;9.698;2022-08-03T06:53:02;100468.72;;;28.13;41.96
32642;BME280;19323;56.072;9.698;2022-08-03T06:55:30;100470.41;;;28.14;41.86
32642;BME280;19323;56.072;9.698;2022-08-03T06:57:57;100471.25;;;28.15;42.03
32642;BME280;19323;56.072;9.698;2022-08-03T07:00:28;100452.31;;;28.08;42.05
32642;BME280;19323;56.072;9.698;2022-08-03T07:02:56;100466.69;;;28.15;41.51
32642;BME280;19323;56.072;9.698;2022-08-03T07:05:24;100456.75;;;28.16;41.37
32642;BME280;19323;56.072;9.698;2022-08-03T07:07:54;100443.00;;;28.11;41.59
32642;BME280;19323;56.072;9.698;2022-08-03T07:10:21;100447.50;;;28.19;41.55
32642;BME280;19323;56.072;9.698;2022-08-03T07:12:47;100440.59;;;28.16;41.79
32642;BME280;19323;56.072;9.698;2022-08-03T07:15:22;100464.47;;;28.19;41.31
32642;BME280;19323;56.072;9.698;2022-08-03T07:18:08;100461.63;;;28.21;41.09
32642;BME280;19323;56.072;9.698;2022-08-03T07:20:35;100447.56;;;28.10;41.37
32642;BME280;19323;56.072;9.698;2022-08-03T07:23:02;100463.28;;;28.22;41.39
32642;BME280;19323;56.072;9.698;2022-08-03T07:25:28;100467.63;;;28.23;41.21
32642;BME280;19323;56.072;9.698;2022-08-03T07:27:55;100467.63;;;28.23;41.56
32642;BME280;19323;56.072;9.698;2022-08-03T07:30:23;100469.31;;;28.24;41.08
32642;BME280;19323;56.072;9.698;2022-08-03T07:32:49;100468.28;;;28.25;41.45
32642;BME280;19323;56.072;9.698;2022-08-03T07:35:16;100463.66;;;28.19;41.09
32642;BME280;19323;56.072;9.698;2022-08-03T07:37:50;100472.50;;;28.27;41.26
32642;BME280;19323;56.072;9.698;2022-08-03T07:40:20;100473.22;;;28.21;41.31
32642;BME280;19323;56.072;9.698;2022-08-03T07:42:47;100464.94;;;28.23;41.53
32642;BME280;19323;56.072;9.698;2022-08-03T07:45:18;100459.53;;;28.23;41.61
32642;BME280;19323;56.072;9.698;2022-08-03T07:47:46;100470.25;;;28.31;41.23
32642;BME280;19323;56.072;9.698;2022-08-03T07:50:19;100460.59;;;28.22;41.79
32642;BME280;19323;56.072;9.698;2022-08-03T07:52:46;100473.13;;;28.29;41.64
32642;BME280;19323;56.072;9.698;2022-08-03T07:55:13;100479.16;;;28.31;41.63
32642;BME280;19323;56.072;9.698;2022-08-03T07:57:39;100452.22;;;28.17;41.65
32642;BME280;19323;56.072;9.698;2022-08-03T08:00:13;100482.50;;;28.33;41.68
32642;BME280;19323;56.072;9.698;2022-08-03T08:02:40;100481.66;;;28.33;41.64
32642;BME280;19323;56.072;9.698;2022-08-03T08:05:07;100475.28;;;28.34;41.69
32642;BME280;19323;56.072;9.698;2022-08-03T08:07:34;100453.63;;;28.27;41.29
32642;BME280;19323;56.072;9.698;2022-08-03T08:10:00;100457.81;;;28.30;41.44
32642;BME280;19323;56.072;9.698;2022-08-03T08:12:27;100462.25;;;28.38;41.37
32642;BME280;19323;56.072;9.698;2022-08-03T08:14:53;100467.47;;;28.39;41.10
32642;BME280;19323;56.072;9.698;2022-08-03T08:17:20;100470.34;;;28.38;41.39
32642;BME280;19323;56.072;9.698;2022-08-03T08:19:49;100464.50;;;28.34;41.30
32642;BME280;19323;56.072;9.698;2022-08-03T08:22:19;100467.19;;;28.34;41.03
32642;BME280;19323;56.072;9.698;2022-08-03T08:24:56;100447.59;;;28.25;41.25
32642;BME280;19323;56.072;9.698;2022-08-03T08:27:22;100471.81;;;28.40;40.98
32642;BME280;19323;56.072;9.698;2022-08-03T08:29:49;100465.44;;;28.41;41.12
32642;BME280;19323;56.072;9.698;2022-08-03T08:32:21;100460.88;;;28.42;40.83
32642;BME280;19323;56.072;9.698;2022-08-03T08:34:48;100458.75;;;28.37;41.17
32642;BME280;19323;56.072;9.698;2022-08-03T08:37:15;100461.69;;;28.42;41.13
32642;BME280;19323;56.072;9.698;2022-08-03T08:39:41;100460.41;;;28.38;41.03
32642;BME280;19323;56.072;9.698;2022-08-03T08:42:09;100474.63;;;28.47;41.08
32642;BME280;19323;56.072;9.698;2022-08-03T08:44:35;100476.47;;;28.46;40.85
32642;BME280;19323;56.072;9.698;2022-08-03T08:47:02;100477.31;;;28.47;41.33
32642;BME280;19323;56.072;9.698;2022-08-03T08:49:31;100468.78;;;28.43;40.86
32642;BME280;19323;56.072;9.698;2022-08-03T08:51:58;100483.38;;;28.49;40.73
32642;BME280;19323;56.072;9.698;2022-08-03T08:54:28;100475.28;;;28.49;41.06
32642;BME280;19323;56.072;9.698;2022-08-03T08:57:01;100466.25;;;28.42;41.10
32642;BME280;19323;56.072;9.698;2022-08-03T08:59:31;100484.91;;;28.51;40.75
32642;BME280;19323;56.072;9.698;2022-08-03T09:02:14;100474.53;;;28.40;40.88
32642;BME280;19323;56.072;9.698;2022-08-03T09:04:41;100490.06;;;28.53;41.04
32642;BME280;19323;56.072;9.698;2022-08-03T09:07:10;100488.25;;;28.53;40.83
32642;BME280;19323;56.072;9.698;2022-08-03T09:09:54;100490.94;;;28.53;40.99
32642;BME280;19323;56.072;9.698;2022-08-03T09:12:39;100491.75;;;28.54;40.75
32642;BME280;19323;56.072;9.698;2022-08-03T09:15:24;100489.91;;;28.54;40.97
32642;BME280;19323;56.072;9.698;2022-08-03T09:17:52;100495.28;;;28.54;41.13
32642;BME280;19323;56.072;9.698;2022-08-03T09:20:20;100483.56;;;28.47;40.95
32642;BME280;19323;56.072;9.698;2022-08-03T09:23:00;100495.94;;;28.57;40.66
32642;BME280;19323;56.072;9.698;2022-08-03T09:25:57;100503.00;;;28.58;40.79
32642;BME280;19323;56.072;9.698;2022-08-03T09:28:33;100497.41;;;28.59;40.84
32642;BME280;19323;56.072;9.698;2022-08-03T09:31:28;100479.16;;;28.46;40.74
32642;BME280;19323;56.072;9.698;2022-08-03T09:33:55;100500.13;;;28.59;40.82
32642;BME280;19323;56.072;9.698;2022-08-03T09:36:43;100494.56;;;28.61;40.72
32642;BME280;19323;56.072;9.698;2022-08-03T09:39:16;100502.63;;;28.61;41.10
32642;BME280;19323;56.072;9.698;2022-08-03T09:41:45;100492.69;;;28.61;41.02
32642;BME280;19323;56.072;9.698;2022-08-03T09:44:11;100490.00;;;28.61;40.92
32642;BME280;19323;56.072;9.698;2022-08-03T09:46:53;100496.03;;;28.63;40.82
32642;BME280;19323;56.072;9.698;2022-08-03T09:49:21;100444.63;;;28.35;40.82
32642;BME280;19323;56.072;9.698;2022-08-03T09:51:48;100490.47;;;28.65;40.46
32642;BME280;19323;56.072;9.698;2022-08-03T09:54:35;100480.34;;;28.67;40.79
32642;BME280;19323;56.072;9.698;2022-08-03T09:57:01;100491.13;;;28.67;40.88
32642;BME280;19323;56.072;9.698;2022-08-03T09:59:30;100469.38;;;28.53;41.07
32642;BME280;19323;56.072;9.698;2022-08-03T10:01:59;100490.09;;;28.68;40.89
32642;BME280;19323;56.072;9.698;2022-08-03T10:04:26;100483.22;;;28.65;41.14
32642;BME280;19323;56.072;9.698;2022-08-03T10:07:03;100480.69;;;28.64;40.97
32642;BME280;19323;56.072;9.698;2022-08-03T10:09:30;100487.00;;;28.71;40.86
32642;BME280;19323;56.072;9.698;2022-08-03T10:11:56;100495.09;;;28.71;41.16
32642;BME280;19323;56.072;9.698;2022-08-03T10:14:25;100491.22;;;28.73;41.31
32642;BME280;19323;56.072;9.698;2022-08-03T10:16:55;100484.78;;;28.74;41.29
32642;BME280;19323;56.072;9.698;2022-08-03T10:19:22;100473.91;;;28.68;41.51
32642;BME280;19323;56.072;9.698;2022-08-03T10:21:52;100493.34;;;28.78;41.36
32642;BME280;19323;56.072;9.698;2022-08-03T10:24:24;100482.19;;;28.81;41.85
32642;BME280;19323;56.072;9.698;2022-08-03T10:26:53;100464.63;;;28.70;41.50
32642;BME280;19323;56.072;9.698;2022-08-03T10:29:26;100489.25;;;28.82;41.41
32642;BME280;19323;56.072;9.698;2022-08-03T10:31:56;100487.56;;;28.81;41.73
32642;BME280;19323;56.072;9.698;2022-08-03T10:34:26;100482.00;;;28.83;41.57
32642;BME280;19323;56.072;9.698;2022-08-03T10:36:57;100474.84;;;28.75;41.77
32642;BME280;19323;56.072;9.698;2022-08-03T10:39:28;100471.97;;;28.76;41.93
32642;BME280;19323;56.072;9.698;2022-08-03T10:41:56;100493.44;;;28.85;41.78
32642;BME280;19323;56.072;9.698;2022-08-03T10:44:32;100486.00;;;28.87;41.94
32642;BME280;19323;56.072;9.698;2022-08-03T10:47:02;100483.47;;;28.85;41.70
32642;BME280;19323;56.072;9.698;2022-08-03T10:49:29;100486.66;;;28.89;41.86
32642;BME280;19323;56.072;9.698;2022-08-03T10:52:00;100472.03;;;28.83;42.10
32642;BME280;19323;56.072;9.698;2022-08-03T10:54:42;100426.72;;;28.57;41.93
32642;BME280;19323;56.072;9.698;2022-08-03T10:57:45;100482.72;;;28.91;41.97
32642;BME280;19323;56.072;9.698;2022-08-03T11:00:23;100489.78;;;28.92;42.25
32642;BME280;19323;56.072;9.698;2022-08-03T11:05:34;100490.44;;;28.94;42.24
32642;BME280;19323;56.072;9.698;2022-08-03T11:10:47;100476.31;;;28.92;42.15
32642;BME280;19323;56.072;9.698;2022-08-03T11:13:15;100483.00;;;28.96;42.09
32642;BME280;19323;56.072;9.698;2022-08-03T11:15:44;100488.38;;;28.96;42.32
32642;BME280;19323;56.072;9.698;2022-08-03T11:18:12;100480.94;;;28.99;42.16
32642;BME280;19323;56.072;9.698;2022-08-03T11:20:49;100488.84;;;29.00;42.09
32642;BME280;19323;56.072;9.698;2022-08-03T11:23:19;100491.56;;;29.00;42.15
32642;BME280;19323;56.072;9.698;2022-08-03T11:26:19;100493.22;;;29.01;42.31
32642;BME280;19323;56.072;9.698;2022-08-03T11:28:48;100481.25;;;28.89;42.21
32642;BME280;19323;56.072;9.698;2022-08-03T11:34:12;100489.50;;;29.02;42.31
32642;BME280;19323;56.072;9.698;2022-08-03T11:39:45;100502.78;;;29.04;42.13
32642;BME280;19323;56.072;9.698;2022-08-03T11:44:52;100499.66;;;29.00;42.18
32642;BME280;19323;56.072;9.698;2022-08-03T11:47:20;100505.69;;;29.02;42.19
32642;BME280;19323;56.072;9.698;2022-08-03T11:49:50;100515.72;;;29.08;42.02
32642;BME280;19323;56.072;9.698;2022-08-03T11:52:17;100496.78;;;29.02;42.17
32642;BME280;19323;56.072;9.698;2022-08-03T11:54:44;100512.84;;;29.10;41.91
32642;BME280;19323;56.072;9.698;2022-08-03T11:57:10;100500.28;;;29.02;42.11
32642;BME280;19323;56.072;9.698;2022-08-03T11:59:37;100497.59;;;29.02;42.07
32642;BME280;19323;56.072;9.698;2022-08-03T12:02:12;100519.53;;;29.14;42.08
32642;BME280;19323;56.072;9.698;2022-08-03T12:04:57;100515.84;;;29.15;42.13
32642;BME280;19323;56.072;9.698;2022-08-03T12:07:28;100520.38;;;29.14;42.09
32642;BME280;19323;56.072;9.698;2022-08-03T12:10:15;100525.59;;;29.16;42.46
32642;BME280;19323;56.072;9.698;2022-08-03T12:12:41;100522.88;;;29.16;42.33
32642;BME280;19323;56.072;9.698;2022-08-03T12:15:12;100511.84;;;29.11;42.42
32642;BME280;19323;56.072;9.698;2022-08-03T12:17:39;100514.53;;;29.11;42.49
32642;BME280;19323;56.072;9.698;2022-08-03T12:20:08;100529.41;;;29.22;42.38
32642;BME280;19323;56.072;9.698;2022-08-03T12:22:37;100465.81;;;28.83;42.29
32642;BME280;19323;56.072;9.698;2022-08-03T12:25:06;100533.94;;;29.21;42.37
32642;BME280;19323;56.072;9.698;2022-08-03T12:27:33;100530.22;;;29.22;42.33
32642;BME280;19323;56.072;9.698;2022-08-03T12:30:00;100527.34;;;29.24;42.47
32642;BME280;19323;56.072;9.698;2022-08-03T12:32:28;100529.19;;;29.23;42.22
32642;BME280;19323;56.072;9.698;2022-08-03T12:34:56;100525.50;;;29.24;42.44
32642;BME280;19323;56.072;9.698;2022-08-03T12:37:27;100541.50;;;29.26;42.25
32642;BME280;19323;56.072;9.698;2022-08-03T12:39:57;100532.53;;;29.25;42.29
32642;BME280;19323;56.072;9.698;2022-08-03T12:42:38;100532.53;;;29.25;42.44
32642;BME280;19323;56.072;9.698;2022-08-03T12:45:37;100539.22;;;29.29;42.21
32642;BME280;19323;56.072;9.698;2022-08-03T12:48:08;100534.66;;;29.30;42.36
32642;BME280;19323;56.072;9.698;2022-08-03T12:50:35;100509.47;;;29.08;42.39
32642;BME280;19323;56.072;9.698;2022-08-03T12:53:04;100537.19;;;29.31;42.37
32642;BME280;19323;56.072;9.698;2022-08-03T12:55:35;100549.66;;;29.32;42.31
32642;BME280;19323;56.072;9.698;2022-08-03T12:58:33;100545.09;;;29.33;42.42
32642;BME280;19323;56.072;9.698;2022-08-03T13:01:04;100540.34;;;29.35;42.34
32642;BME280;19323;56.072;9.698;2022-08-03T13:03:44;100540.13;;;29.36;42.26
32642;BME280;19323;56.072;9.698;2022-08-03T13:08:46;100547.88;;;29.40;42.57
32642;BME280;19323;56.072;9.698;2022-08-03T13:11:32;100548.69;;;29.40;42.36
32642;BME280;19323;56.072;9.698;2022-08-03T13:14:18;100550.38;;;29.41;42.54
32642;BME280;19323;56.072;9.698;2022-08-03T13:16:47;100554.75;;;29.42;42.65
32642;BME280;19323;56.072;9.698;2022-08-03T13:19:14;100558.91;;;29.45;42.67
32642;BME280;19323;56.072;9.698;2022-08-03T13:21:42;100553.72;;;29.43;42.74
32642;BME280;19323;56.072;9.698;2022-08-03T13:24:29;100558.09;;;29.44;42.87
32642;BME280;19323;56.072;9.698;2022-08-03T13:26:56;100561.63;;;29.45;43.01
32642;BME280;19323;56.072;9.698;2022-08-03T13:29:23;100555.22;;;29.46;42.88
32642;BME280;19323;56.072;9.698;2022-08-03T13:31:50;100553.16;;;29.48;42.83
32642;BME280;19323;56.072;9.698;2022-08-03T13:34:16;100535.59;;;29.37;42.64
32642;BME280;19323;56.072;9.698;2022-08-03T13:36:49;100555.66;;;29.49;42.67
32642;BME280;19323;56.072;9.698;2022-08-03T13:39:36;100539.19;;;29.44;42.58